Time;durP1;ratioP1;P1;durP2;ratioP2;P2;SDS_P1;SDS_P2;PMS_P1;PMS_P2;Temp;Humidity;BMP_temperature;BMP_pressure;BME280_temperature;BME280_humidity;BME280_pressure;Samples;Min_cycle;Max_cycle;Signal;HPM_P1;HPM_P2
2021/05/17 00:02:09;;;;;;;4.57;1.73;;;7.40;99.90;;;;;;5094234;28;20477;-47
2021/05/17 00:04:36;;;;;;;2.78;1.55;;;7.40;99.90;;;;;;5078944;28;20364;-46
2021/05/17 00:07:05;;;;;;;2.63;1.35;;;7.40;99.90;;;;;;5075256;28;20043;-51
2021/05/17 00:09:31;;;;;;;2.88;1.52;;;7.30;99.90;;;;;;5075091;28;20054;-48
2021/05/17 00:11:57;;;;;;;2.15;1.50;;;7.30;99.90;;;;;;5074757;28;20539;-45
2021/05/17 00:14:25;;;;;;;1.75;1.50;;;7.30;99.90;;;;;;5075049;28;20418;-46
2021/05/17 00:16:52;;;;;;;4.13;1.50;;;7.20;99.90;;;;;;5073904;28;20020;-47
2021/05/17 00:19:18;;;;;;;3.83;1.70;;;7.20;99.90;;;;;;5075057;28;20028;-47
2021/05/17 00:21:45;;;;;;;2.78;1.60;;;7.10;99.90;;;;;;5074949;28;20031;-44
2021/05/17 00:24:12;;;;;;;3.20;1.42;;;7.10;99.90;;;;;;5074916;28;20408;-46
2021/05/17 00:26:39;;;;;;;2.15;1.48;;;7.10;99.90;;;;;;5074709;28;20103;-43
2021/05/17 00:29:05;;;;;;;2.13;1.15;;;7.00;99.90;;;;;;5074813;28;20460;-49
2021/05/17 00:31:32;;;;;;;3.95;1.80;;;7.00;99.90;;;;;;5073414;28;20487;-46
2021/05/17 00:33:57;;;;;;;1.40;1.20;;;7.00;99.90;;;;;;5074693;28;20384;-46
2021/05/17 00:36:23;;;;;;;2.20;1.42;;;6.90;99.90;;;;;;5074667;28;20032;-46
2021/05/17 00:38:49;;;;;;;4.00;1.55;;;6.90;99.90;;;;;;5074601;28;20096;-44
2021/05/17 00:41:15;;;;;;;2.03;1.30;;;6.80;99.90;;;;;;5074563;28;20432;-46
2021/05/17 00:43:41;;;;;;;5.82;1.92;;;6.80;99.90;;;;;;5074288;28;20369;-48
2021/05/17 00:46:10;;;;;;;4.18;1.88;;;6.80;99.90;;;;;;5073361;28;20111;-49
2021/05/17 00:48:36;;;;;;;2.00;1.80;;;6.70;99.90;;;;;;5074363;28;20063;-47
2021/05/17 00:51:03;;;;;;;3.42;2.00;;;6.70;99.90;;;;;;5079156;28;20583;-48
2021/05/17 00:53:29;;;;;;;3.47;1.30;;;6.60;99.90;;;;;;5093093;28;20100;-48
2021/05/17 00:55:55;;;;;;;2.53;1.38;;;6.60;99.90;;;;;;5094430;28;20408;-47
2021/05/17 00:58:21;;;;;;;2.38;1.67;;;6.60;99.90;;;;;;5094358;28;20031;-45
2021/05/17 01:00:46;;;;;;;2.15;1.77;;;6.50;99.90;;;;;;5093183;28;20020;-46
2021/05/17 01:03:12;;;;;;;1.80;1.52;;;6.50;99.90;;;;;;5089353;28;20036;-53
2021/05/17 01:05:39;;;;;;;4.30;1.77;;;6.40;99.90;;;;;;5074122;28;20021;-51
2021/05/17 01:08:07;;;;;;;2.33;1.77;;;6.40;99.90;;;;;;5072853;28;20024;-48
2021/05/17 01:10:40;;;;;;;1.70;1.60;;;6.40;99.90;;;;;;5074060;28;20375;-46
2021/05/17 01:13:07;;;;;;;2.67;1.80;;;6.40;99.90;;;;;;5073751;28;20031;-51
2021/05/17 01:15:33;;;;;;;3.20;1.50;;;6.40;99.90;;;;;;5073925;28;20021;-46
2021/05/17 01:18:00;;;;;;;2.17;1.67;;;6.40;99.90;;;;;;5072679;28;20017;-47
2021/05/17 01:20:28;;;;;;;3.13;1.33;;;6.40;99.90;;;;;;5073970;28;20120;-46
2021/05/17 01:23:19;;;;;;;2.33;1.70;;;6.40;99.90;;;;;;5073451;28;20107;-50
2021/05/17 01:25:47;;;;;;;3.10;1.88;;;6.40;99.90;;;;;;5073761;28;20479;-45
2021/05/17 01:28:19;;;;;;;2.78;1.40;;;6.40;99.90;;;;;;5073560;28;20032;-46
2021/05/17 01:30:46;;;;;;;2.28;1.52;;;6.40;99.90;;;;;;5071102;28;20030;-47
2021/05/17 01:33:13;;;;;;;6.32;1.90;;;6.40;99.90;;;;;;5073378;28;20020;-49
2021/05/17 01:35:41;;;;;;;3.45;1.40;;;6.40;99.90;;;;;;5073517;28;20419;-48
2021/05/17 01:38:07;;;;;;;1.70;1.55;;;6.40;99.90;;;;;;5073544;28;20436;-49
2021/05/17 01:40:35;;;;;;;1.95;1.70;;;6.40;99.90;;;;;;5073450;28;20020;-44
2021/05/17 01:43:02;;;;;;;2.80;1.55;;;6.40;99.90;;;;;;5073208;28;20176;-46
2021/05/17 01:45:30;;;;;;;3.47;1.70;;;6.30;99.90;;;;;;5073515;28;20024;-47
2021/05/17 01:47:57;;;;;;;3.47;1.58;;;6.30;99.90;;;;;;5071838;28;20120;-46
2021/05/17 01:50:24;;;;;;;6.30;2.20;;;6.30;99.90;;;;;;5072283;28;20349;-48
2021/05/17 01:52:50;;;;;;;1.80;1.40;;;6.30;99.90;;;;;;5092375;28;20055;-46
2021/05/17 01:55:17;;;;;;;1.67;1.55;;;6.30;99.90;;;;;;5093270;28;20052;-46
2021/05/17 01:57:43;;;;;;;1.88;1.60;;;6.30;99.90;;;;;;5093367;28;20468;-50
2021/05/17 02:00:11;;;;;;;3.63;1.60;;;6.30;99.90;;;;;;5093211;28;20039;-44
2021/05/17 02:02:37;;;;;;;3.53;1.52;;;6.20;99.90;;;;;;5091653;28;20024;-48
2021/05/17 02:05:05;;;;;;;2.38;1.52;;;6.20;99.90;;;;;;5073588;28;20123;-46
2021/05/17 02:07:30;;;;;;;3.58;1.52;;;6.10;99.90;;;;;;5073005;28;20020;-46
2021/05/17 02:09:59;;;;;;;1.80;1.50;;;6.10;99.90;;;;;;5072587;28;20032;-48
2021/05/17 02:12:25;;;;;;;2.85;1.60;;;6.10;99.90;;;;;;5072866;28;20112;-45
2021/05/17 02:14:53;;;;;;;1.83;1.48;;;6.00;99.90;;;;;;5072480;28;20060;-46
2021/05/17 02:17:20;;;;;;;3.33;2.00;;;6.00;99.90;;;;;;5071788;28;20516;-48
2021/05/17 02:19:46;;;;;;;2.97;1.85;;;6.00;99.90;;;;;;5071366;28;20031;-47
2021/05/17 02:22:15;;;;;;;3.95;2.67;;;5.90;99.90;;;;;;5072792;28;20024;-46
2021/05/17 02:24:40;;;;;;;1.90;1.52;;;5.90;99.90;;;;;;5072636;28;20043;-44
2021/05/17 02:27:07;;;;;;;2.88;2.03;;;5.90;99.90;;;;;;5072806;28;20037;-50
2021/05/17 02:29:34;;;;;;;3.45;1.98;;;5.90;99.90;;;;;;5072410;28;20028;-48
2021/05/17 02:32:00;;;;;;;6.00;2.00;;;5.90;99.90;;;;;;5071275;28;20379;-46
2021/05/17 02:34:26;;;;;;;2.13;1.73;;;6.00;99.90;;;;;;5072644;28;20066;-45
2021/05/17 02:36:52;;;;;;;3.95;2.03;;;6.00;99.90;;;;;;5072315;28;20032;-44
2021/05/17 02:39:17;;;;;;;5.22;1.70;;;6.00;99.90;;;;;;5072504;28;20028;-46
2021/05/17 02:41:43;;;;;;;9.32;2.75;;;6.10;99.90;;;;;;5072516;28;20031;-46
2021/05/17 02:44:10;;;;;;;3.05;1.50;;;6.20;99.90;;;;;;5072333;28;20028;-43
2021/05/17 02:46:36;;;;;;;1.98;1.35;;;6.30;99.90;;;;;;5071535;28;20387;-46
2021/05/17 02:49:01;;;;;;;3.53;1.52;;;6.30;99.90;;;;;;5072563;28;20028;-49
2021/05/17 02:51:28;;;;;;;2.95;1.63;;;6.40;99.90;;;;;;5080645;28;20032;-45
2021/05/17 02:53:53;;;;;;;7.30;2.28;;;6.40;99.90;;;;;;5092271;28;20055;-44
2021/05/17 02:56:33;;;;;;;1.95;1.75;;;6.50;99.90;;;;;;5092821;28;20459;-46
2021/05/17 02:59:02;;;;;;;3.25;2.05;;;6.50;99.90;;;;;;5092309;28;20032;-46
2021/05/17 03:01:34;;;;;;;2.42;1.75;;;6.50;99.90;;;;;;5091273;28;20024;-44
2021/05/17 03:04:05;;;;;;;2.13;1.67;;;6.50;99.90;;;;;;5081945;28;20064;-46
2021/05/17 03:06:34;;;;;;;1.70;1.52;;;6.50;99.90;;;;;;5072407;28;20032;-43
2021/05/17 03:09:03;;;;;;;2.80;1.80;;;6.40;99.90;;;;;;5072193;28;20036;-46
2021/05/17 03:11:29;;;;;;;2.45;1.80;;;6.50;99.90;;;;;;5072157;28;20207;-47
2021/05/17 03:13:57;;;;;;;3.50;1.60;;;6.40;99.90;;;;;;5072222;28;20029;-46
2021/05/17 03:16:25;;;;;;;1.83;1.63;;;6.40;99.90;;;;;;5072532;28;20024;-47
2021/05/17 03:18:53;;;;;;;2.00;1.70;;;6.40;99.90;;;;;;5076089;28;20448;-48
2021/05/17 03:21:21;;;;;;;2.83;1.65;;;6.50;99.90;;;;;;5076059;28;20029;-46
2021/05/17 03:23:49;;;;;;;2.08;1.50;;;6.50;99.90;;;;;;5075928;28;20111;-50
2021/05/17 03:26:17;;;;;;;2.72;1.88;;;6.60;99.90;;;;;;5076035;28;20028;-48
2021/05/17 03:28:42;;;;;;;3.35;1.63;;;6.70;99.90;;;;;;5076025;28;20029;-46
2021/05/17 03:31:08;;;;;;;2.15;1.52;;;6.80;99.90;;;;;;5074340;28;20033;-46
2021/05/17 03:33:33;;;;;;;3.38;1.60;;;6.90;99.90;;;;;;5075965;28;20379;-46
2021/05/17 03:35:59;;;;;;;2.30;1.52;;;6.90;99.90;;;;;;5075677;28;20040;-49
2021/05/17 03:38:25;;;;;;;3.20;1.65;;;6.90;99.90;;;;;;5075791;28;20017;-45
2021/05/17 03:40:51;;;;;;;2.63;1.60;;;7.00;99.90;;;;;;5075536;28;20025;-47
2021/05/17 03:43:16;;;;;;;2.28;1.48;;;7.00;99.90;;;;;;5075727;28;20029;-46
2021/05/17 03:45:42;;;;;;;4.63;1.70;;;7.00;99.90;;;;;;5074066;28;20032;-45
2021/05/17 03:48:07;;;;;;;2.83;1.80;;;7.00;99.90;;;;;;5075590;28;20391;-46
2021/05/17 03:50:33;;;;;;;2.05;1.70;;;7.00;99.90;;;;;;5072286;28;20972;-48
2021/05/17 03:52:58;;;;;;;3.13;1.70;;;7.00;99.90;;;;;;5094707;28;20024;-51
2021/05/17 03:55:24;;;;;;;2.95;1.80;;;7.00;99.90;;;;;;5095362;28;20483;-46
2021/05/17 03:57:50;;;;;;;1.50;1.40;;;7.10;99.90;;;;;;5095516;28;20099;-46
2021/05/17 04:00:16;;;;;;;2.60;1.95;;;7.10;99.90;;;;;;5095517;28;20031;-46
2021/05/17 04:02:43;;;;;;;1.90;1.50;;;7.20;99.90;;;;;;5092860;28;20060;-45
2021/05/17 04:13:20;;;;;;;2.88;1.65;;;8.40;99.90;;;;;;5074768;28;20035;-44
2021/05/17 04:15:47;;;;;;;2.90;1.38;;;9.00;99.90;;;;;;5073547;28;20020;-46
2021/05/17 04:18:13;;;;;;;2.40;1.58;;;9.20;99.90;;;;;;5074776;28;20514;-45
2021/05/17 04:20:39;;;;;;;2.72;1.55;;;9.40;99.90;;;;;;5074896;28;20103;-48
2021/05/17 04:23:04;;;;;;;1.85;1.35;;;9.60;99.90;;;;;;5074894;28;20032;-48
2021/05/17 04:25:30;;;;;;;2.70;1.70;;;10.00;99.90;;;;;;5074949;28;20107;-46
2021/05/17 04:27:56;;;;;;;2.78;2.10;;;10.60;99.90;;;;;;5074483;28;20035;-45
2021/05/17 04:30:22;;;;;;;2.50;1.65;;;11.40;99.90;;;;;;5075064;28;20025;-46
2021/05/17 04:32:47;;;;;;;1.77;1.50;;;12.60;99.90;;;;;;5073125;28;20040;-47
2021/05/17 04:35:13;;;;;;;1.40;1.30;;;13.60;99.90;;;;;;5074617;28;20413;-44
2021/05/17 04:37:39;;;;;;;1.73;1.20;;;13.80;99.90;;;;;;5066356;28;20031;-44
2021/05/17 04:40:06;;;;;;;1.23;1.05;;;13.70;99.90;;;;;;5073061;28;20040;-49
2021/05/17 04:42:32;;;;;;;2.83;1.55;;;13.40;99.90;;;;;;5074389;28;20059;-46
2021/05/17 04:44:57;;;;;;;2.70;1.55;;;12.90;99.90;;;;;;5074226;28;20064;-45
2021/05/17 04:47:23;;;;;;;2.72;1.17;;;12.40;99.90;;;;;;5072848;28;20024;-46
2021/05/17 04:49:49;;;;;;;2.00;1.63;;;12.10;99.90;;;;;;5074225;28;20040;-49
2021/05/17 04:52:14;;;;;;;2.00;1.50;;;11.90;99.90;;;;;;5088680;28;20113;-48
2021/05/17 04:54:40;;;;;;;2.97;1.42;;;11.60;99.90;;;;;;5094306;28;20422;-49
2021/05/17 04:57:05;;;;;;;3.03;1.50;;;11.50;99.90;;;;;;5094133;28;20174;-45
2021/05/17 04:59:31;;;;;;;3.38;1.45;;;11.20;99.90;;;;;;5077697;28;20027;-47
2021/05/17 05:01:56;;;;;;;4.00;1.80;;;11.10;99.90;;;;;;5072613;28;20383;-47
2021/05/17 05:04:22;;;;;;;3.83;2.60;;;10.90;99.90;;;;;;5060783;28;20036;-46
2021/05/17 05:06:47;;;;;;;3.20;2.15;;;10.90;99.90;;;;;;5054101;28;20021;-46
2021/05/17 05:09:13;;;;;;;2.95;1.80;;;10.80;99.90;;;;;;5054039;28;20032;-46
2021/05/17 05:11:38;;;;;;;1.95;1.73;;;10.70;99.90;;;;;;5053939;28;20033;-46
2021/05/17 05:14:04;;;;;;;2.55;2.30;;;10.70;99.90;;;;;;5053953;28;20032;-45
2021/05/17 05:16:30;;;;;;;4.28;2.28;;;10.50;99.90;;;;;;5052818;28;20029;-46
2021/05/17 05:18:55;;;;;;;3.00;1.58;;;10.50;99.90;;;;;;5053587;28;20435;-44
2021/05/17 05:21:21;;;;;;;5.07;2.03;;;10.50;99.90;;;;;;5053817;28;20415;-44
2021/05/17 05:23:47;;;;;;;2.92;1.80;;;10.40;99.90;;;;;;5053920;28;20036;-47
2021/05/17 05:26:43;;;;;;;3.60;2.20;;;10.40;99.90;;;;;;5053607;28;20052;-46
2021/05/17 05:34:17;;;;;;;2.25;1.45;;;10.40;99.90;;;;;;5053816;28;20032;-46
2021/05/17 05:36:42;;;;;;;3.85;1.25;;;10.50;99.90;;;;;;5053523;28;20024;-46
2021/05/17 05:39:08;;;;;;;4.25;1.92;;;10.70;99.90;;;;;;5052871;28;20017;-46
2021/05/17 05:41:34;;;;;;;2.70;2.00;;;10.80;99.90;;;;;;5053353;28;20021;-47
2021/05/17 05:44:00;;;;;;;2.70;1.23;;;10.90;99.90;;;;;;5053496;28;20466;-46
2021/05/17 05:46:26;;;;;;;3.15;1.90;;;11.00;99.90;;;;;;5052025;28;20521;-45
2021/05/17 05:48:52;;;;;;;3.00;1.77;;;11.10;99.90;;;;;;5053319;28;20407;-46
2021/05/17 05:51:21;;;;;;;2.13;1.40;;;11.20;99.90;;;;;;5066751;28;20023;-47
2021/05/17 05:53:47;;;;;;;1.95;1.63;;;11.30;99.90;;;;;;5093504;28;20048;-47
2021/05/17 05:56:13;;;;;;;2.03;1.80;;;11.40;99.90;;;;;;5093194;28;20479;-46
2021/05/17 05:58:38;;;;;;;1.90;1.25;;;11.60;99.90;;;;;;5093513;28;20027;-49
2021/05/17 06:01:05;;;;;;;2.38;1.10;;;11.80;99.90;;;;;;5092014;28;20087;-48
2021/05/17 06:03:31;;;;;;;1.40;1.30;;;12.00;99.90;;;;;;5086684;28;20058;-45
2021/05/17 06:05:57;;;;;;;3.03;1.55;;;12.20;99.90;;;;;;5072908;28;20472;-45
2021/05/17 06:08:23;;;;;;;2.28;1.40;;;12.40;99.90;;;;;;5072019;28;20142;-47
2021/05/17 06:10:48;;;;;;;1.45;1.10;;;12.60;99.90;;;;;;5072795;28;20028;-48
2021/05/17 06:13:14;;;;;;;1.25;1.13;;;12.70;99.90;;;;;;5072461;28;20028;-45
2021/05/17 06:15:43;;;;;;;2.08;1.00;;;12.90;99.90;;;;;;5071554;28;20048;-50
2021/05/17 06:18:09;;;;;;;2.05;1.00;;;13.00;99.90;;;;;;5072891;28;20067;-49
2021/05/17 06:20:35;;;;;;;2.10;1.15;;;13.30;99.90;;;;;;5071342;28;20052;-48
2021/05/17 06:23:01;;;;;;;1.83;1.17;;;13.50;99.90;;;;;;5072714;28;20060;-49
2021/05/17 06:25:27;;;;;;;1.20;1.00;;;13.80;99.90;;;;;;5072663;28;20024;-46
2021/05/17 06:27:53;;;;;;;1.83;1.42;;;14.30;99.90;;;;;;5072785;28;20024;-49
2021/05/17 06:30:20;;;;;;;1.65;1.55;;;14.90;99.90;;;;;;5072746;28;20040;-48
2021/05/17 06:32:47;;;;;;;3.20;1.58;;;15.20;99.90;;;;;;5071212;28;20024;-49
2021/05/17 06:35:16;;;;;;;4.88;2.05;;;15.60;99.90;;;;;;5072746;28;20056;-47
2021/05/17 06:37:41;;;;;;;5.18;2.50;;;16.00;99.90;;;;;;5072469;28;20065;-45
2021/05/17 06:40:08;;;;;;;3.55;2.15;;;16.60;99.90;;;;;;5072454;28;20028;-46
2021/05/17 06:42:34;;;;;;;2.60;1.80;;;17.50;99.90;;;;;;5072546;28;20031;-49
2021/05/17 06:45:00;;;;;;;1.90;1.17;;;18.60;96.20;;;;;;5072666;28;20098;-52
2021/05/17 06:47:25;;;;;;;2.75;1.38;;;20.10;92.20;;;;;;5071384;28;20032;-50
2021/05/17 06:49:51;;;;;;;3.85;1.38;;;21.50;88.00;;;;;;5071020;28;20021;-45
2021/05/17 06:52:21;;;;;;;1.40;1.00;;;23.10;82.80;;;;;;5087127;28;20035;-47
2021/05/17 06:54:47;;;;;;;1.05;0.95;;;25.00;77.10;;;;;;5092513;28;20534;-46
2021/05/17 06:57:23;;;;;;;1.38;1.00;;;26.80;73.10;;;;;;5091210;28;20052;-47
2021/05/17 06:59:55;;;;;;;1.10;0.90;;;28.00;71.00;;;;;;5092776;28;20028;-50
2021/05/17 07:02:22;;;;;;;3.38;1.30;;;29.20;68.50;;;;;;5091069;28;20027;-47
2021/05/17 07:04:49;;;;;;;1.90;0.88;;;29.40;65.90;;;;;;5075647;28;20379;-45
2021/05/17 07:07:20;;;;;;;1.33;0.80;;;29.70;65.10;;;;;;5072096;28;20394;-48
2021/05/17 07:12:31;;;;;;;1.75;0.82;;;27.90;65.60;;;;;;5072493;28;20035;-48
2021/05/17 07:14:59;;;;;;;1.27;0.70;;;27.10;65.70;;;;;;5072299;28;20029;-47
2021/05/17 07:17:24;;;;;;;1.42;0.68;;;26.50;65.60;;;;;;5070721;28;20032;-48
2021/05/17 07:19:50;;;;;;;1.58;0.80;;;26.00;65.40;;;;;;5072292;28;20333;-50
2021/05/17 07:24:59;;;;;;;1.10;0.80;;;25.50;64.60;;;;;;5072333;28;20560;-50
2021/05/17 07:27:26;;;;;;;0.93;0.80;;;25.50;63.90;;;;;;5071978;28;20041;-47
2021/05/17 07:29:51;;;;;;;1.35;0.70;;;25.40;63.10;;;;;;5072229;28;20025;-47
2021/05/17 07:32:17;;;;;;;0.75;0.70;;;25.20;62.90;;;;;;5070420;28;20043;-49
2021/05/17 07:34:42;;;;;;;0.75;0.75;;;24.90;62.90;;;;;;5072386;28;20086;-49
2021/05/17 07:37:08;;;;;;;1.55;0.68;;;24.70;62.90;;;;;;5071693;28;20028;-48
2021/05/17 07:39:34;;;;;;;2.58;0.73;;;24.60;62.60;;;;;;5072076;28;20028;-46
2021/05/17 07:42:00;;;;;;;1.83;0.90;;;24.60;62.10;;;;;;5071945;28;20495;-48
2021/05/17 07:44:26;;;;;;;1.95;0.90;;;24.60;61.60;;;;;;5071963;28;20120;-49
2021/05/17 07:46:51;;;;;;;1.70;0.90;;;24.70;61.40;;;;;;5070503;28;20101;-50
2021/05/17 07:49:20;;;;;;;0.85;0.70;;;24.80;60.90;;;;;;5071828;28;20484;-49
2021/05/17 07:51:46;;;;;;;0.82;0.65;;;25.10;59.20;;;;;;5080988;28;20028;-47
2021/05/17 07:54:15;;;;;;;1.95;1.10;;;25.20;59.40;;;;;;5091897;28;20040;-45
2021/05/17 07:56:41;;;;;;;1.48;0.60;;;25.40;59.00;;;;;;5092162;28;20031;-47
2021/05/17 07:59:07;;;;;;;1.40;0.55;;;25.50;58.70;;;;;;5092072;28;20024;-47
2021/05/17 08:01:33;;;;;;;1.23;0.60;;;25.50;58.40;;;;;;5090740;28;20107;-46
2021/05/17 08:03:58;;;;;;;0.95;0.63;;;25.30;58.00;;;;;;5085489;28;20111;-48
2021/05/17 08:06:24;;;;;;;1.33;0.70;;;25.20;58.20;;;;;;5075045;28;20035;-51
2021/05/17 08:08:51;;;;;;;1.00;0.70;;;25.50;57.50;;;;;;5075509;28;20024;-49
2021/05/17 08:11:17;;;;;;;1.25;0.80;;;25.80;56.70;;;;;;5075027;28;20487;-47
2021/05/17 08:13:43;;;;;;;2.50;1.95;;;26.60;56.00;;;;;;5075174;28;20025;-49
2021/05/17 08:16:09;;;;;;;1.08;0.70;;;27.90;54.70;;;;;;5074131;28;20021;-46
2021/05/17 08:18:35;;;;;;;0.75;0.70;;;29.40;53.20;;;;;;5075029;28;20027;-50
2021/05/17 08:21:01;;;;;;;1.00;0.50;;;30.40;52.00;;;;;;5075211;28;20099;-47
2021/05/17 08:23:28;;;;;;;1.48;0.90;;;30.40;51.10;;;;;;5074698;28;20020;-48
2021/05/17 08:25:53;;;;;;;0.80;0.52;;;29.60;48.90;;;;;;5075084;28;20028;-48
2021/05/17 08:28:19;;;;;;;1.27;0.45;;;28.80;51.00;;;;;;5074962;28;20025;-47
2021/05/17 08:30:46;;;;;;;1.73;0.60;;;28.20;51.00;;;;;;5073595;28;20480;-46
2021/05/17 08:33:13;;;;;;;0.40;0.30;;;27.70;51.10;;;;;;5074675;28;20463;-46
2021/05/17 08:35:40;;;;;;;1.00;0.60;;;27.40;51.10;;;;;;5074942;28;20029;-47
2021/05/17 08:38:06;;;;;;;1.65;0.45;;;26.80;51.40;;;;;;5074546;28;20107;-49
2021/05/17 08:40:38;;;;;;;1.30;0.50;;;26.30;51.90;;;;;;5074737;28;20029;-47
2021/05/17 08:43:04;;;;;;;0.65;0.57;;;26.10;52.00;;;;;;5074650;28;20452;-48
2021/05/17 08:45:31;;;;;;;0.57;0.30;;;26.30;51.80;;;;;;5073763;28;20131;-49
2021/05/17 08:47:57;;;;;;;1.00;0.52;;;26.40;50.50;;;;;;5074713;28;20414;-51
2021/05/17 08:50:23;;;;;;;0.50;0.40;;;26.50;50.00;;;;;;5074559;28;20035;-47
2021/05/17 08:52:49;;;;;;;0.80;0.60;;;26.40;49.90;;;;;;5093981;28;20024;-46
2021/05/17 08:55:16;;;;;;;1.27;0.40;;;26.40;49.90;;;;;;5094612;28;20060;-45
2021/05/17 08:57:43;;;;;;;1.30;0.50;;;27.40;48.70;;;;;;5094467;28;20031;-50
2021/05/17 09:00:09;;;;;;;1.08;0.50;;;27.70;48.20;;;;;;5094697;28;20408;-47
2021/05/17 09:02:35;;;;;;;0.50;0.40;;;27.20;48.60;;;;;;5093034;28;20030;-45
2021/05/17 09:05:08;;;;;;;0.70;0.70;;;28.10;48.30;;;;;;5075620;28;20386;-46
2021/05/17 09:07:39;;;;;;;2.05;0.50;;;29.30;46.80;;;;;;5073892;28;20028;-47
2021/05/17 09:10:25;;;;;;;2.80;0.60;;;29.10;47.10;;;;;;5074192;28;20020;-47
2021/05/17 09:13:04;;;;;;;2.60;0.80;;;28.90;43.30;;;;;;5073530;28;20386;-47
2021/05/17 09:15:39;;;;;;;0.50;0.40;;;29.70;43.10;;;;;;5072836;28;20016;-47
2021/05/17 09:18:17;;;;;;;0.75;0.40;;;30.10;43.30;;;;;;5073920;28;20104;-44
2021/05/17 09:20:48;;;;;;;0.75;0.50;;;29.70;44.00;;;;;;5073822;28;20028;-47
2021/05/17 09:23:20;;;;;;;1.42;0.50;;;30.20;42.70;;;;;;5073610;28;20012;-47
2021/05/17 09:25:57;;;;;;;0.98;0.60;;;30.80;41.70;;;;;;5073897;28;20035;-50
2021/05/17 09:28:30;;;;;;;1.20;0.50;;;31.50;40.00;;;;;;5073605;28;20024;-48
2021/05/17 09:31:06;;;;;;;1.00;0.40;;;31.90;41.00;;;;;;5072391;28;20021;-49
2021/05/17 09:34:01;;;;;;;1.05;0.28;;;32.20;40.90;;;;;;5073474;28;20049;-49
2021/05/17 09:36:39;;;;;;;0.30;0.30;;;32.80;39.60;;;;;;5071612;28;20412;-49
2021/05/17 09:39:05;;;;;;;0.52;0.40;;;33.20;40.20;;;;;;5073359;28;20021;-47
2021/05/17 09:41:42;;;;;;;0.28;0.25;;;33.50;40.20;;;;;;5073304;28;20044;-46
2021/05/17 09:44:12;;;;;;;0.73;0.30;;;33.40;39.30;;;;;;5073402;28;20025;-48
2021/05/17 09:47:08;;;;;;;0.50;0.30;;;33.50;38.40;;;;;;5072127;28;20028;-47
2021/05/17 09:49:39;;;;;;;0.50;0.20;;;33.50;36.70;;;;;;5073357;28;20025;-48
2021/05/17 09:52:22;;;;;;;0.82;0.28;;;33.70;38.00;;;;;;5086423;28;20115;-47
2021/05/17 09:54:53;;;;;;;0.98;0.40;;;33.40;36.60;;;;;;5093388;28;20040;-48
2021/05/17 09:57:28;;;;;;;1.20;0.47;;;32.00;37.10;;;;;;5093524;28;20051;-46
2021/05/17 09:59:55;;;;;;;0.30;0.25;;;30.00;38.70;;;;;;5093864;28;20102;-47
2021/05/17 10:02:39;;;;;;;0.50;0.35;;;29.00;40.20;;;;;;5092048;28;20524;-46
2021/05/17 10:05:26;;;;;;;0.50;0.20;;;28.10;41.20;;;;;;5074005;28;20028;-45
2021/05/17 10:08:03;;;;;;;1.38;0.30;;;27.30;42.20;;;;;;5072964;28;20107;-47
2021/05/17 10:10:30;;;;;;;0.52;0.38;;;26.70;42.60;;;;;;5073366;28;20073;-48
2021/05/17 10:12:58;;;;;;;0.47;0.25;;;26.20;43.20;;;;;;5072794;28;20028;-47
2021/05/17 10:15:26;;;;;;;1.25;0.30;;;25.90;43.30;;;;;;5072890;28;20021;-49
2021/05/17 10:17:52;;;;;;;0.35;0.30;;;25.90;43.50;;;;;;5072359;28;20078;-48
2021/05/17 10:20:22;;;;;;;3.45;0.38;;;25.80;43.50;;;;;;5072914;28;20036;-44
2021/05/17 10:22:51;;;;;;;0.60;0.40;;;25.50;43.80;;;;;;5072898;28;20082;-49
2021/05/17 10:25:28;;;;;;;0.70;0.30;;;25.20;44.30;;;;;;5072278;28;20526;-50
2021/05/17 10:27:59;;;;;;;0.30;0.20;;;24.80;44.90;;;;;;5072793;28;20060;-52
2021/05/17 10:30:31;;;;;;;0.50;0.22;;;24.40;45.60;;;;;;5072254;28;20532;-49
2021/05/17 10:32:59;;;;;;;1.42;0.38;;;24.00;46.20;;;;;;5072835;28;20452;-49
2021/05/17 10:35:32;;;;;;;0.20;0.20;;;23.80;46.70;;;;;;5072457;28;20059;-48
2021/05/17 10:38:25;;;;;;;0.47;0.30;;;23.50;47.60;;;;;;5072586;28;20173;-49
2021/05/17 10:41:02;;;;;;;0.60;0.30;;;23.30;48.40;;;;;;5072449;28;20055;-51
2021/05/17 10:46:40;;;;;;;0.47;0.20;;;23.40;48.30;;;;;;5071718;28;20035;-49
2021/05/17 10:49:25;;;;;;;0.35;0.28;;;23.60;47.60;;;;;;5072540;28;20440;-48
2021/05/17 10:51:57;;;;;;;1.67;0.40;;;23.80;48.20;;;;;;5083575;28;20033;-51
2021/05/17 10:54:28;;;;;;;0.25;0.25;;;23.80;47.70;;;;;;5078035;28;20045;-52
2021/05/17 10:57:01;;;;;;;0.65;0.40;;;23.90;47.60;;;;;;5072185;28;20086;-47
2021/05/17 11:02:29;;;;;;;0.60;0.40;;;23.70;48.00;;;;;;5071354;28;20039;-48
2021/05/17 11:04:56;;;;;;;1.85;0.40;;;23.50;48.10;;;;;;5052820;28;20070;-48
2021/05/17 11:07:44;;;;;;;0.30;0.30;;;23.50;48.20;;;;;;5052178;28;20033;-47
2021/05/17 11:10:40;;;;;;;0.47;0.30;;;23.30;48.40;;;;;;5051600;28;20469;-47
2021/05/17 11:13:23;;;;;;;0.40;0.25;;;23.10;48.80;;;;;;5048995;28;20037;-47
2021/05/17 11:16:04;;;;;;;0.40;0.20;;;22.80;48.90;;;;;;5051069;28;20039;-48
2021/05/17 11:18:38;;;;;;;0.70;0.25;;;22.70;49.20;;;;;;5051965;28;20025;-45
2021/05/17 11:21:12;;;;;;;1.10;0.28;;;22.50;49.20;;;;;;5052155;28;20029;-48
2021/05/17 11:23:37;;;;;;;0.30;0.20;;;22.40;49.50;;;;;;5051634;28;20492;-46
2021/05/17 11:26:09;;;;;;;1.27;0.28;;;22.20;49.60;;;;;;5051813;28;20029;-45
2021/05/17 11:28:35;;;;;;;0.43;0.38;;;22.00;49.80;;;;;;5051694;28;20025;-45
2021/05/17 11:31:12;;;;;;;0.47;0.28;;;21.80;50.00;;;;;;5054452;28;20100;-46
2021/05/17 11:33:58;;;;;;;0.73;0.20;;;21.70;50.40;;;;;;5071642;28;20096;-46
2021/05/17 11:36:27;;;;;;;0.20;0.20;;;21.60;50.80;;;;;;5062145;28;20029;-46
2021/05/17 11:39:08;;;;;;;1.40;0.38;;;21.40;50.70;;;;;;5055598;28;20056;-47
2021/05/17 11:41:55;;;;;;;0.30;0.28;;;21.40;50.70;;;;;;5055345;28;20023;-49
2021/05/17 11:44:33;;;;;;;0.47;0.45;;;21.40;50.90;;;;;;5055599;28;20108;-48
2021/05/17 11:47:02;;;;;;;4.10;0.60;;;21.50;50.50;;;;;;5054274;28;20025;-46
2021/05/17 11:49:29;;;;;;;0.80;0.40;;;21.40;49.80;;;;;;5054310;28;20048;-49
2021/05/17 11:51:57;;;;;;;1.00;0.47;;;21.30;50.00;;;;;;5079197;28;20407;-47
2021/05/17 11:54:25;;;;;;;1.63;0.32;;;21.30;50.00;;;;;;5095473;28;20130;-46
2021/05/17 11:56:57;;;;;;;0.25;0.20;;;21.20;50.20;;;;;;5095287;28;20032;-48
2021/05/17 11:59:25;;;;;;;1.00;0.13;;;21.10;50.50;;;;;;5095512;28;20031;-44
2021/05/17 12:01:54;;;;;;;2.13;0.40;;;21.20;50.50;;;;;;5093994;28;20111;-47
2021/05/17 12:04:36;;;;;;;1.40;0.22;;;21.40;50.30;;;;;;5082363;28;20032;-50
2021/05/17 12:07:03;;;;;;;0.77;0.40;;;21.70;49.90;;;;;;5075283;28;20024;-50
2021/05/17 12:09:31;;;;;;;0.75;0.30;;;21.90;49.50;;;;;;5075062;28;20028;-48
2021/05/17 12:11:59;;;;;;;0.60;0.20;;;21.90;49.40;;;;;;5074973;28;20745;-48
2021/05/17 12:14:24;;;;;;;0.17;0.17;;;21.80;49.50;;;;;;5075055;28;20052;-47
2021/05/17 12:17:12;;;;;;;0.63;0.20;;;21.60;50.30;;;;;;5073711;28;20071;-45
2021/05/17 12:19:38;;;;;;;1.83;0.43;;;21.50;50.10;;;;;;5074865;28;20020;-47
2021/05/17 12:22:13;;;;;;;3.30;0.30;;;21.30;50.40;;;;;;5069776;28;20035;-47
2021/05/17 12:24:40;;;;;;;0.97;0.40;;;21.10;50.80;;;;;;5074606;28;20462;-47
2021/05/17 12:27:08;;;;;;;0.77;0.40;;;21.10;51.10;;;;;;5074634;28;20107;-47
2021/05/17 12:29:58;;;;;;;0.63;0.30;;;21.10;51.20;;;;;;5074650;28;20021;-47
2021/05/17 12:32:45;;;;;;;1.05;0.45;;;21.20;51.40;;;;;;5073100;28;20036;-48
2021/05/17 12:35:38;;;;;;;0.75;0.30;;;21.50;51.10;;;;;;5074386;28;20033;-49
2021/05/17 12:38:05;;;;;;;0.40;0.30;;;21.80;50.20;;;;;;5074546;28;20032;-50
2021/05/17 12:40:32;;;;;;;0.40;0.30;;;22.00;50.30;;;;;;5074507;28;20048;-47
2021/05/17 12:43:05;;;;;;;0.60;0.50;;;22.00;50.10;;;;;;5073933;28;20043;-52
2021/05/17 12:45:31;;;;;;;1.60;0.47;;;21.90;50.00;;;;;;5072944;28;20028;-50
2021/05/17 12:47:57;;;;;;;0.85;0.43;;;21.90;50.10;;;;;;5073992;28;20025;-47
2021/05/17 12:50:24;;;;;;;0.30;0.30;;;21.90;50.30;;;;;;5074328;28;20035;-51
2021/05/17 12:53:10;;;;;;;2.17;0.68;;;21.90;50.30;;;;;;5093603;28;20032;-47
2021/05/17 12:55:37;;;;;;;;;;;22.00;49.80;;;;;;5094632;28;20047;-50
2021/05/17 12:58:02;;;;;;;0.40;0.40;;;21.90;49.70;;;;;;5094146;28;19904;-51
2021/05/17 13:00:46;;;;;;;0.43;0.30;;;21.90;50.30;;;;;;5093030;28;20379;-48
2021/05/17 13:03:18;;;;;;;0.90;0.40;;;21.90;50.30;;;;;;5090796;28;20025;-47
2021/05/17 13:05:51;;;;;;;1.13;0.35;;;21.90;50.30;;;;;;5073926;28;20020;-47
2021/05/17 13:08:17;;;;;;;0.45;0.35;;;22.00;50.70;;;;;;5074163;28;20549;-48
2021/05/17 13:10:56;;;;;;;0.80;0.40;;;22.10;50.40;;;;;;5073872;28;20037;-50
2021/05/17 13:13:59;;;;;;;1.55;0.35;;;22.10;50.20;;;;;;5073930;28;20078;-49
2021/05/17 13:17:00;;;;;;;1.13;0.40;;;22.20;49.70;;;;;;5072563;28;20041;-46
2021/05/17 13:20:00;;;;;;;0.57;0.20;;;22.20;49.20;;;;;;5057128;28;20028;-49
2021/05/17 13:30:55;;;;;;;;;;;22.40;49.40;;;;;;5072773;28;20502;-51
2021/05/17 13:33:46;;;;;;;1.05;0.40;;;22.50;47.90;;;;;;5072282;28;20450;-48
2021/05/17 13:36:17;;;;;;;0.50;0.20;;;22.50;48.50;;;;;;5073702;28;20108;-46